createdAt,value
2023-02-07T00:02:48.120Z,46.97
2023-02-07T00:05:50.796Z,49.67
2023-02-07T00:08:55.444Z,46.93
2023-02-07T00:11:58.718Z,48.72
2023-02-07T00:15:01.717Z,47.03
2023-02-07T00:18:05.002Z,47.35
2023-02-07T00:21:11.205Z,44.13
2023-02-07T00:24:14.762Z,48.10
2023-02-07T00:27:18.325Z,43.83
2023-02-07T00:30:21.774Z,43.78
2023-02-07T00:33:25.205Z,40.50
2023-02-07T00:36:31.545Z,42.57
2023-02-07T00:39:34.668Z,38.03
2023-02-07T00:42:37.406Z,41.35
2023-02-07T00:45:40.206Z,36.25
2023-02-07T00:48:43.631Z,44.17
2023-02-07T00:51:47.418Z,42.87
2023-02-07T00:54:50.699Z,40.47
2023-02-07T00:57:55.224Z,42.45
2023-02-07T01:00:58.833Z,44.03
2023-02-07T01:04:02.373Z,47.05
2023-02-07T01:07:05.139Z,43.73
2023-02-07T01:10:10.261Z,44.63
2023-02-07T01:13:14.206Z,40.80
2023-02-07T01:16:19.332Z,45.95
2023-02-07T01:19:22.084Z,45.22
2023-02-07T01:22:27.664Z,39.67
2023-02-07T01:25:31.271Z,42.37
2023-02-07T01:28:33.918Z,39.75
2023-02-07T01:31:37.417Z,37.50
2023-02-07T01:34:40.537Z,38.47
2023-02-07T01:37:43.134Z,36.60
2023-02-07T01:40:45.751Z,35.10
2023-02-07T01:44:28.830Z,39.85
2023-02-07T01:47:32.699Z,43.40
2023-02-07T01:50:43.769Z,38.58
2023-02-07T01:53:47.644Z,43.17
2023-02-07T01:56:58.697Z,42.73
2023-02-07T02:00:02.596Z,39.25
2023-02-07T02:03:05.941Z,39.40
2023-02-07T02:06:11.082Z,43.35
2023-02-07T02:09:16.226Z,39.73
2023-02-07T02:12:42.812Z,41.90
2023-02-07T02:16:02.829Z,40.58
2023-02-07T02:19:24.105Z,43.47
2023-02-07T02:22:55.698Z,40.83
2023-02-07T02:26:23.674Z,42.73
2023-02-07T02:29:48.420Z,38.77
2023-02-07T02:33:24.091Z,41.25
2023-02-07T02:36:48.078Z,44.78
2023-02-07T02:40:03.615Z,41.92
2023-02-07T02:43:26.018Z,34.30
2023-02-07T02:46:35.013Z,35.57
2023-02-07T02:49:39.759Z,32.88
2023-02-07T02:52:50.525Z,35.92
2023-02-07T02:56:09.533Z,36.78
2023-02-07T02:59:39.236Z,36.67
2023-02-07T03:02:59.719Z,40.63
2023-02-07T03:06:31.354Z,36.20
2023-02-07T03:09:49.110Z,37.38
2023-02-07T03:13:02.896Z,37.53
2023-02-07T03:16:13.783Z,36.63
2023-02-07T03:19:34.688Z,34.17
2023-02-07T03:22:39.867Z,36.13
2023-02-07T03:25:44.623Z,39.90
2023-02-07T03:28:50.466Z,36.08
2023-02-07T03:31:58.202Z,38.87
2023-02-07T03:35:14.168Z,36.90
2023-02-07T03:38:17.798Z,39.67
2023-02-07T03:41:46.650Z,37.47
2023-02-07T03:44:54.549Z,39.42
2023-02-07T03:47:57.992Z,37.10
2023-02-07T03:51:03.214Z,43.90
2023-02-07T03:54:05.919Z,38.97
2023-02-07T03:57:09.917Z,42.50
2023-02-07T04:00:14.447Z,41.15
2023-02-07T04:03:17.985Z,42.00
2023-02-07T04:06:21.295Z,41.00
2023-02-07T04:09:23.845Z,40.75
2023-02-07T04:12:32.773Z,45.25
2023-02-07T04:15:35.459Z,41.42
2023-02-07T04:18:38.229Z,41.63
2023-02-07T04:21:41.231Z,40.15
2023-02-07T04:24:43.888Z,46.58
2023-02-07T04:27:47.065Z,42.55
2023-02-07T04:30:50.619Z,43.70
2023-02-07T04:33:53.992Z,45.80
2023-02-07T04:36:57.194Z,44.57
2023-02-07T04:40:00.467Z,42.75
2023-02-07T04:43:03.591Z,44.30
2023-02-07T04:46:07.578Z,42.25
2023-02-07T04:49:10.329Z,37.87
2023-02-07T04:52:13.769Z,40.83
2023-02-07T04:55:16.479Z,36.92
2023-02-07T04:58:21.560Z,35.92
2023-02-07T05:01:24.244Z,40.17
2023-02-07T05:04:27.690Z,34.60
2023-02-07T05:07:31.066Z,37.00
2023-02-07T05:10:35.575Z,35.78
2023-02-07T05:13:39.124Z,36.28
2023-02-07T05:16:42.633Z,39.17
2023-02-07T05:19:45.496Z,40.27
2023-02-07T05:22:49.182Z,39.90
2023-02-07T05:25:52.577Z,38.53
2023-02-07T05:28:55.231Z,35.80
2023-02-07T05:32:17.449Z,39.47
2023-02-07T05:35:20.085Z,41.60
2023-02-07T05:38:23.631Z,39.80
2023-02-07T05:41:27.122Z,46.10
2023-02-07T05:44:29.735Z,42.72
2023-02-07T05:47:33.345Z,45.58
2023-02-07T05:50:36.807Z,45.80
2023-02-07T05:53:42.093Z,44.00
2023-02-07T05:56:44.803Z,48.72
2023-02-07T05:59:47.460Z,42.72
2023-02-07T06:02:50.272Z,48.78
2023-02-07T06:05:53.619Z,54.57
2023-02-07T06:08:56.465Z,37.97
2023-02-07T06:11:59.556Z,41.42
2023-02-07T06:15:02.387Z,45.30
2023-02-07T06:18:05.741Z,44.95
2023-02-07T06:21:09.063Z,51.33
2023-02-07T06:24:11.924Z,44.37
2023-02-07T06:27:15.147Z,41.17
2023-02-07T06:30:19.668Z,44.50
2023-02-07T06:33:23.754Z,42.50
2023-02-07T06:36:27.258Z,40.47
2023-02-07T06:39:41.066Z,55.30
2023-02-07T06:42:45.231Z,54.35
2023-02-07T06:45:50.346Z,44.42
2023-02-07T06:48:53.116Z,46.90
2023-02-07T06:51:56.310Z,51.00
2023-02-07T06:54:59.137Z,64.07
2023-02-07T06:58:04.939Z,44.70
2023-02-07T07:01:11.499Z,42.90
2023-02-07T07:04:14.912Z,43.05
2023-02-07T07:07:17.908Z,44.10
2023-02-07T07:10:21.232Z,47.78
2023-02-07T07:13:24.301Z,43.53
2023-02-07T07:16:28.018Z,48.72
2023-02-07T07:19:31.769Z,41.70
2023-02-07T07:22:35.322Z,43.17
2023-02-07T07:25:40.308Z,40.27
2023-02-07T07:28:43.637Z,39.35
2023-02-07T07:31:47.846Z,42.83
2023-02-07T07:34:51.504Z,36.55
2023-02-07T07:37:56.887Z,44.53
2023-02-07T07:41:00.708Z,51.97
2023-02-07T07:44:08.291Z,50.42
2023-02-07T07:47:14.092Z,48.40
2023-02-07T07:50:18.046Z,48.22
2023-02-07T07:53:23.362Z,42.23
2023-02-07T07:56:39.500Z,49.27
2023-02-07T07:59:48.129Z,49.30
2023-02-07T08:02:51.253Z,44.65
2023-02-07T08:05:55.186Z,37.58
2023-02-07T08:08:58.720Z,39.77
2023-02-07T08:12:01.850Z,44.27
2023-02-07T08:15:05.328Z,39.35
2023-02-07T08:18:09.056Z,39.15
2023-02-07T08:21:13.279Z,41.20
2023-02-07T08:24:16.522Z,38.63
2023-02-07T08:27:19.783Z,41.93
2023-02-07T08:30:23.092Z,47.35
2023-02-07T08:33:27.103Z,38.38
2023-02-07T08:36:31.686Z,45.58
2023-02-07T08:39:36.239Z,36.87
2023-02-07T08:42:39.388Z,46.70
2023-02-07T08:46:01.574Z,47.38
2023-02-07T08:49:12.737Z,37.50
2023-02-07T08:52:18.409Z,45.72
2023-02-07T08:55:21.317Z,39.63
2023-02-07T08:58:25.566Z,38.33
2023-02-07T09:01:28.544Z,42.30
2023-02-07T09:04:36.578Z,39.38
2023-02-07T09:07:39.662Z,37.92
2023-02-07T09:10:48.109Z,35.60
2023-02-07T09:13:51.507Z,40.80
2023-02-07T09:16:57.948Z,40.65
2023-02-07T09:20:02.015Z,35.13
2023-02-07T09:23:20.074Z,37.15
2023-02-07T09:26:26.626Z,41.67
2023-02-07T09:29:29.395Z,36.70
2023-02-07T09:32:32.285Z,34.20
2023-02-07T09:35:50.473Z,35.83
2023-02-07T09:39:00.592Z,37.65
2023-02-07T09:42:48.547Z,33.27
2023-02-07T09:45:56.970Z,34.93
2023-02-07T09:49:14.578Z,34.03
2023-02-07T09:52:32.319Z,36.35
2023-02-07T09:55:49.057Z,34.20
2023-02-07T09:59:31.616Z,33.20
2023-02-07T10:02:52.499Z,35.30
2023-02-07T10:06:17.410Z,37.15
2023-02-07T10:09:33.941Z,33.05
2023-02-07T10:13:02.185Z,32.67
2023-02-07T10:16:34.215Z,29.77
2023-02-07T10:20:03.664Z,29.77
2023-02-07T10:23:46.257Z,27.38
2023-02-07T10:27:01.467Z,26.95
2023-02-07T10:30:53.892Z,31.27
2023-02-07T10:35:18.935Z,32.60
2023-02-07T10:38:39.669Z,30.27
2023-02-07T10:41:45.028Z,31.75
2023-02-07T10:49:25.790Z,27.38
2023-02-07T10:52:47.150Z,23.83
2023-02-07T10:56:09.559Z,24.30
2023-02-07T10:59:49.163Z,30.08
2023-02-07T11:03:04.336Z,23.30
2023-02-07T11:06:10.283Z,22.50
2023-02-07T11:09:21.521Z,27.73
2023-02-07T11:12:28.070Z,24.37
2023-02-07T11:15:47.729Z,20.70
2023-02-07T11:19:29.866Z,22.02
2023-02-07T11:22:44.968Z,24.45
2023-02-07T11:25:56.504Z,21.23
2023-02-07T11:29:14.241Z,22.77
2023-02-07T11:32:22.861Z,23.38
2023-02-07T11:35:34.291Z,17.30
2023-02-07T11:38:46.581Z,19.00
2023-02-07T11:42:00.705Z,20.27
2023-02-07T11:45:13.543Z,19.93
2023-02-07T11:48:21.765Z,20.08
2023-02-07T11:51:35.268Z,18.83
2023-02-07T11:54:50.066Z,21.63
2023-02-07T11:57:59.142Z,16.80
2023-02-07T12:01:05.131Z,19.27
2023-02-07T12:04:12.958Z,18.77
2023-02-07T12:07:26.572Z,18.73
2023-02-07T12:10:37.295Z,22.65
2023-02-07T12:13:51.154Z,17.30
2023-02-07T12:17:09.494Z,17.83
2023-02-07T12:20:26.156Z,18.40
2023-02-07T12:23:47.001Z,17.55
2023-02-07T12:26:58.907Z,21.10
2023-02-07T12:30:16.527Z,24.73
2023-02-07T12:33:41.768Z,19.03
2023-02-07T12:36:50.325Z,18.13
2023-02-07T12:40:01.570Z,23.55
2023-02-07T12:43:13.668Z,20.48
2023-02-07T12:46:39.929Z,17.83
2023-02-07T12:50:12.154Z,18.97
2023-02-07T12:58:54.497Z,19.55
2023-02-07T13:03:00.814Z,20.55
2023-02-07T13:06:33.622Z,20.63
2023-02-07T13:09:41.917Z,23.10
2023-02-07T13:12:47.186Z,22.58
2023-02-07T13:16:02.701Z,21.10
2023-02-07T13:19:24.368Z,19.23
2023-02-07T13:22:37.201Z,23.13
2023-02-07T13:25:46.167Z,21.73
2023-02-07T13:28:58.937Z,26.10
2023-02-07T13:32:06.366Z,22.42
2023-02-07T13:35:23.437Z,20.02
2023-02-07T13:38:51.335Z,21.57
2023-02-07T13:42:24.094Z,21.37
2023-02-07T13:45:33.081Z,20.55
2023-02-07T13:48:56.963Z,24.00
2023-02-07T14:02:01.530Z,27.37
2023-02-07T14:05:11.328Z,31.35
2023-02-07T14:08:17.742Z,23.77
2023-02-07T14:11:41.780Z,21.80
2023-02-07T14:15:00.406Z,23.70
2023-02-07T14:18:26.817Z,26.17
2023-02-07T14:21:38.469Z,29.05
2023-02-07T14:24:51.289Z,22.35
2023-02-07T14:28:18.967Z,25.95
2023-02-07T14:31:24.693Z,26.30
2023-02-07T14:34:32.641Z,24.30
2023-02-07T14:38:00.762Z,30.02
2023-02-07T14:41:16.603Z,27.20
2023-02-07T14:44:28.124Z,27.25
2023-02-07T14:47:31.956Z,24.20
2023-02-07T14:50:35.707Z,26.47
2023-02-07T14:53:41.149Z,28.50
2023-02-07T14:56:49.753Z,30.15
2023-02-07T15:00:54.368Z,27.05
2023-02-07T15:04:45.887Z,30.13
2023-02-07T15:08:06.522Z,33.20
2023-02-07T15:11:15.136Z,31.80
2023-02-07T15:14:22.216Z,31.00
2023-02-07T15:17:33.351Z,26.45
2023-02-07T15:20:43.125Z,30.37
2023-02-07T15:24:03.004Z,31.53
2023-02-07T15:27:08.244Z,33.55
2023-02-07T15:30:18.811Z,36.05
2023-02-07T15:33:24.832Z,45.00
2023-02-07T15:36:34.084Z,31.13
2023-02-07T15:39:36.896Z,30.37
2023-02-07T15:42:54.398Z,31.77
2023-02-07T15:46:09.055Z,40.63
2023-02-07T15:49:29.168Z,31.42
2023-02-07T15:52:35.128Z,39.77
2023-02-07T15:55:44.319Z,29.17
2023-02-07T15:58:49.550Z,31.15
2023-02-07T16:02:01.521Z,28.10
2023-02-07T16:05:16.656Z,35.80
2023-02-07T16:08:39.948Z,31.40
2023-02-07T16:11:43.363Z,35.53
2023-02-07T16:14:46.700Z,30.92
2023-02-07T16:17:49.902Z,31.17
2023-02-07T16:20:53.630Z,31.35
2023-02-07T16:24:05.677Z,36.37
2023-02-07T16:27:15.018Z,29.50
2023-02-07T16:30:25.128Z,39.33
2023-02-07T16:33:29.013Z,30.80
2023-02-07T16:36:31.754Z,32.70
2023-02-07T16:39:34.638Z,33.93
2023-02-07T16:42:39.477Z,31.27
2023-02-07T16:45:42.985Z,29.98
2023-02-07T16:48:45.691Z,30.55
2023-02-07T16:51:48.843Z,32.95
2023-02-07T16:54:51.661Z,28.57
2023-02-07T16:57:56.693Z,27.70
2023-02-07T17:01:01.348Z,29.60
2023-02-07T17:04:04.620Z,27.30
2023-02-07T17:07:11.271Z,34.45
2023-02-07T17:10:26.047Z,39.40
2023-02-07T17:13:28.929Z,41.93
2023-02-07T17:16:33.524Z,39.58
2023-02-07T17:19:37.218Z,43.80
2023-02-07T17:22:40.271Z,43.10
2023-02-07T17:25:44.457Z,41.60
2023-02-07T17:28:48.719Z,48.30
2023-02-07T17:31:52.667Z,48.53
2023-02-07T17:34:57.092Z,54.78
2023-02-07T17:38:00.705Z,55.55
2023-02-07T17:41:03.801Z,61.20
2023-02-07T17:44:07.661Z,47.30
2023-02-07T17:47:11.679Z,44.50
2023-02-07T17:50:21.527Z,45.70
2023-02-07T17:53:24.940Z,41.45
2023-02-07T17:56:30.494Z,43.53
2023-02-07T17:59:34.521Z,42.00
2023-02-07T18:02:38.172Z,48.70
2023-02-07T18:05:43.066Z,55.28
2023-02-07T18:08:47.016Z,53.78
2023-02-07T18:11:50.598Z,49.20
2023-02-07T18:14:55.712Z,49.07
2023-02-07T18:18:00.072Z,47.97
2023-02-07T18:21:05.116Z,48.28
2023-02-07T18:24:09.160Z,50.35
2023-02-07T18:27:17.194Z,51.10
2023-02-07T18:30:23.799Z,53.90
2023-02-07T18:33:30.427Z,49.40
2023-02-07T18:36:40.616Z,49.70
2023-02-07T18:39:44.772Z,54.65
2023-02-07T18:42:48.047Z,51.43
2023-02-07T18:45:51.228Z,51.63
2023-02-07T18:48:56.003Z,51.95
2023-02-07T18:51:59.086Z,52.55
2023-02-07T18:55:04.356Z,60.97
2023-02-07T18:58:07.735Z,64.50
2023-02-07T19:01:15.370Z,61.53
2023-02-07T19:04:18.696Z,57.05
2023-02-07T19:07:22.586Z,55.88
2023-02-07T19:10:26.896Z,56.75
2023-02-07T19:13:30.678Z,53.67
2023-02-07T19:16:33.667Z,57.53
2023-02-07T19:19:36.938Z,53.38
2023-02-07T19:22:40.184Z,52.45
2023-02-07T19:25:49.355Z,55.55
2023-02-07T19:28:52.960Z,50.27
2023-02-07T19:32:04.312Z,53.90
2023-02-07T19:35:08.330Z,47.95
2023-02-07T19:38:11.255Z,56.63
2023-02-07T19:41:17.148Z,57.58
2023-02-07T19:44:21.007Z,63.37
2023-02-07T19:47:23.894Z,55.80
2023-02-07T19:50:28.042Z,59.65
2023-02-07T19:53:32.205Z,54.35
2023-02-07T19:56:36.620Z,61.22
2023-02-07T19:59:39.680Z,56.87
2023-02-07T20:02:43.634Z,57.60
2023-02-07T20:05:47.126Z,53.88
2023-02-07T20:08:51.829Z,54.13
2023-02-07T20:11:55.156Z,55.75
2023-02-07T20:14:58.567Z,53.67
2023-02-07T20:18:01.481Z,52.27
2023-02-07T20:21:11.472Z,51.80
2023-02-07T20:24:15.759Z,49.10
2023-02-07T20:27:22.585Z,51.67
2023-02-07T20:30:26.532Z,48.83
2023-02-07T20:33:30.125Z,61.83
2023-02-07T20:36:40.854Z,66.63
2023-02-07T20:39:44.680Z,65.78
2023-02-07T20:42:48.951Z,69.07
2023-02-07T20:45:52.048Z,73.30
2023-02-07T20:48:58.613Z,66.53
2023-02-07T20:52:03.165Z,62.15
2023-02-07T20:55:08.410Z,57.25
2023-02-07T20:58:12.048Z,58.95
2023-02-07T21:01:21.247Z,54.27
2023-02-07T21:04:26.613Z,59.87
2023-02-07T21:07:29.401Z,58.55
2023-02-07T21:10:33.854Z,57.40
2023-02-07T21:13:37.934Z,59.90
2023-02-07T21:16:41.247Z,55.13
2023-02-07T21:19:43.909Z,56.47
2023-02-07T21:22:47.711Z,57.67
2023-02-07T21:25:50.875Z,56.97
2023-02-07T21:29:01.057Z,57.30
2023-02-07T21:32:04.367Z,55.27
2023-02-07T21:35:07.815Z,54.67
2023-02-07T21:38:11.679Z,60.00
2023-02-07T21:41:15.861Z,56.60
2023-02-07T21:44:21.277Z,54.08
2023-02-07T21:47:23.895Z,63.23
2023-02-07T21:50:26.517Z,61.40
2023-02-07T21:53:29.786Z,58.72
2023-02-07T21:56:34.465Z,62.70
2023-02-07T21:59:37.804Z,58.00
2023-02-07T22:02:41.189Z,60.90
2023-02-07T22:05:44.748Z,61.27
2023-02-07T22:08:53.453Z,60.60
2023-02-07T22:11:56.424Z,63.47
2023-02-07T22:14:59.142Z,65.53
2023-02-07T22:18:02.965Z,63.77
2023-02-07T22:21:09.618Z,63.33
2023-02-07T22:24:14.673Z,63.28
2023-02-07T22:27:18.298Z,65.82
2023-02-07T22:30:20.902Z,64.63
2023-02-07T22:33:23.664Z,62.47
2023-02-07T22:36:29.214Z,64.43
2023-02-07T22:39:32.148Z,69.53
2023-02-07T22:42:35.792Z,69.88
2023-02-07T22:45:39.481Z,70.28
2023-02-07T22:48:43.029Z,72.80
2023-02-07T22:51:46.912Z,70.27
2023-02-07T22:54:49.651Z,73.45
2023-02-07T22:57:53.034Z,70.78
2023-02-07T23:00:56.051Z,69.25
2023-02-07T23:03:59.420Z,71.23
2023-02-07T23:07:02.885Z,74.97
2023-02-07T23:10:07.653Z,64.55
2023-02-07T23:13:15.092Z,71.07
2023-02-07T23:16:23.688Z,67.25
2023-02-07T23:19:26.577Z,67.87
2023-02-07T23:22:29.404Z,68.70
2023-02-07T23:25:32.038Z,64.85
2023-02-07T23:28:37.213Z,70.32
2023-02-07T23:31:40.907Z,70.70
2023-02-07T23:34:43.623Z,67.40
2023-02-07T23:37:46.206Z,66.50
2023-02-07T23:40:50.318Z,62.47
2023-02-07T23:43:53.462Z,67.63
2023-02-07T23:46:56.100Z,67.20
2023-02-07T23:49:58.828Z,61.37
2023-02-07T23:53:01.765Z,64.23
2023-02-07T23:56:06.077Z,64.95
2023-02-07T23:59:12.056Z,66.25
